Time;durP1;ratioP1;P1;durP2;ratioP2;P2;SDS_P1;SDS_P2;PMS_P1;PMS_P2;Temp;Humidity;BMP_temperature;BMP_pressure;BME280_temperature;BME280_humidity;BME280_pressure;Samples;Min_cycle;Max_cycle;Signal;HPM_P1;HPM_P2
2023/10/29 00:01:13;;;;;;;10.60;4.65;;;;;;;;;;5074463;28;20201;-69
2023/10/29 00:03:39;;;;;;;6.95;4.72;;;;;;;;;;5074118;28;20227;-69
2023/10/29 00:06:06;;;;;;;7.00;4.50;;;;;;;;;;5074260;28;20228;-69
2023/10/29 00:08:32;;;;;;;6.18;4.38;;;;;;;;;;5074419;28;20636;-68
2023/10/29 00:11:00;;;;;;;8.80;4.10;;;;;;;;;;5074548;28;20219;-68
2023/10/29 00:13:26;;;;;;;9.77;4.22;;;;;;;;;;5074663;28;20259;-69
2023/10/29 00:15:53;;;;;;;6.97;3.97;;;;;;;;;;5074963;28;20220;-68
2023/10/29 00:18:19;;;;;;;5.55;4.28;;;;;;;;;;5076003;28;20204;-68
2023/10/29 00:20:45;;;;;;;10.57;4.55;;;;;;;;;;5075242;28;20216;-69
2023/10/29 00:23:13;;;;;;;10.75;4.30;;;;;;;;;;5074873;28;20200;-69
2023/10/29 00:25:39;;;;;;;6.85;3.83;;;;;;;;;;5073385;28;20217;-68
2023/10/29 00:28:07;;;;;;;6.13;3.90;;;;;;;;;;5073776;28;20204;-68
2023/10/29 00:30:34;;;;;;;5.75;4.15;;;;;;;;;;5073658;28;20630;-69
2023/10/29 00:33:00;;;;;;;6.07;4.25;;;;;;;;;;5073739;28;20205;-69
2023/10/29 00:35:26;;;;;;;4.85;4.38;;;;;;;;;;5073750;28;20224;-69
2023/10/29 00:37:53;;;;;;;4.53;4.13;;;;;;;;;;5073707;28;20560;-69
2023/10/29 00:40:19;;;;;;;4.78;3.70;;;;;;;;;;5073532;28;20287;-68
2023/10/29 00:42:45;;;;;;;5.47;3.70;;;;;;;;;;5073447;28;20200;-69
2023/10/29 00:45:13;;;;;;;7.03;3.80;;;;;;;;;;5072874;28;20591;-68
2023/10/29 00:47:40;;;;;;;5.72;4.10;;;;;;;;;;5073448;28;20313;-69
2023/10/29 00:50:07;;;;;;;7.80;4.22;;;;;;;;;;5072958;28;20565;-70
2023/10/29 00:52:34;;;;;;;7.38;4.20;;;;;;;;;;5073222;28;20573;-69
2023/10/29 00:55:01;;;;;;;5.63;4.25;;;;;;;;;;5072804;28;20216;-69
2023/10/29 00:57:27;;;;;;;5.30;3.78;;;;;;;;;;5073736;28;20211;-69
2023/10/29 00:59:54;;;;;;;5.45;3.78;;;;;;;;;;5073092;28;20198;-69
2023/10/29 01:02:21;;;;;;;8.35;4.28;;;;;;;;;;5073510;28;20204;-69
2023/10/29 01:04:48;;;;;;;5.45;3.95;;;;;;;;;;5072842;28;20489;-69
2023/10/29 01:07:14;;;;;;;5.18;3.60;;;;;;;;;;5072986;28;20197;-69
2023/10/29 01:09:42;;;;;;;4.93;3.50;;;;;;;;;;5072811;28;20216;-69
2023/10/29 01:12:14;;;;;;;4.75;4.03;;;;;;;;;;5072943;28;20204;-69
2023/10/29 01:14:41;;;;;;;5.38;3.33;;;;;;;;;;5072867;28;20220;-69
2023/10/29 01:17:07;;;;;;;7.45;3.45;;;;;;;;;;5072736;28;20200;-69
2023/10/29 01:19:35;;;;;;;4.32;2.65;;;;;;;;;;5072488;28;20660;-69
2023/10/29 01:22:01;;;;;;;7.90;3.42;;;;;;;;;;5072888;28;20227;-69
2023/10/29 01:24:28;;;;;;;6.03;3.40;;;;;;;;;;5072355;28;20224;-70
2023/10/29 01:26:54;;;;;;;4.80;3.30;;;;;;;;;;5072220;28;20645;-69
2023/10/29 01:29:20;;;;;;;5.05;3.05;;;;;;;;;;5072628;28;20220;-69
2023/10/29 01:31:48;;;;;;;5.35;3.10;;;;;;;;;;5072752;28;20200;-69
2023/10/29 01:34:14;;;;;;;7.50;3.20;;;;;;;;;;5072161;28;20222;-69
2023/10/29 01:36:42;;;;;;;3.53;3.22;;;;;;;;;;5072134;28;20579;-69
2023/10/29 01:39:08;;;;;;;3.53;2.50;;;;;;;;;;5072580;28;20203;-69
2023/10/29 01:41:34;;;;;;;3.85;2.83;;;;;;;;;;5072316;28;20208;-69
2023/10/29 01:44:01;;;;;;;3.50;2.40;;;;;;;;;;5072613;28;20582;-69
2023/10/29 01:46:27;;;;;;;6.05;3.00;;;;;;;;;;5072076;28;20227;-69
2023/10/29 01:48:54;;;;;;;6.78;3.05;;;;;;;;;;5072646;28;20205;-69
2023/10/29 01:51:21;;;;;;;4.70;3.45;;;;;;;;;;5072179;28;20196;-69
2023/10/29 01:53:48;;;;;;;5.50;3.10;;;;;;;;;;5071944;28;20211;-69
2023/10/29 01:56:14;;;;;;;5.45;2.88;;;;;;;;;;5071466;28;20207;-69
2023/10/29 01:58:41;;;;;;;4.53;2.90;;;;;;;;;;5072210;28;20205;-69
2023/10/29 02:01:09;;;;;;;3.28;2.40;;;;;;;;;;5071972;28;20192;-69
2023/10/29 02:03:35;;;;;;;5.80;3.13;;;;;;;;;;5072155;28;20305;-69
2023/10/29 02:06:01;;;;;;;6.38;2.30;;;;;;;;;;5071784;28;20229;-68
2023/10/29 02:08:28;;;;;;;4.25;2.40;;;;;;;;;;5071921;28;20204;-70
2023/10/29 02:10:55;;;;;;;3.53;2.72;;;;;;;;;;5071826;28;20696;-69
2023/10/29 02:13:22;;;;;;;4.72;2.90;;;;;;;;;;5072198;28;20200;-69
2023/10/29 02:15:48;;;;;;;2.97;2.67;;;;;;;;;;5071428;28;20228;-69
2023/10/29 02:18:14;;;;;;;2.90;2.45;;;;;;;;;;5071734;28;20196;-69
2023/10/29 02:20:40;;;;;;;3.50;2.60;;;;;;;;;;5071855;28;20204;-69
2023/10/29 02:23:08;;;;;;;6.47;2.83;;;;;;;;;;5071738;28;20204;-69
2023/10/29 02:25:34;;;;;;;3.85;2.25;;;;;;;;;;5071643;28;20220;-69
2023/10/29 02:28:00;;;;;;;4.18;2.60;;;;;;;;;;5071748;28;20583;-69
2023/10/29 02:30:27;;;;;;;2.97;2.33;;;;;;;;;;5071688;28;20247;-69
2023/10/29 02:32:53;;;;;;;4.20;2.80;;;;;;;;;;5071861;28;20207;-69
2023/10/29 02:35:20;;;;;;;3.88;2.35;;;;;;;;;;5071362;28;20227;-69
2023/10/29 02:37:47;;;;;;;5.75;2.97;;;;;;;;;;5071912;28;20208;-70
2023/10/29 02:40:14;;;;;;;3.53;2.35;;;;;;;;;;5071806;28;20200;-69
2023/10/29 02:42:41;;;;;;;2.60;2.20;;;;;;;;;;5071824;28;20206;-69
2023/10/29 02:45:08;;;;;;;5.85;2.72;;;;;;;;;;5071241;28;20232;-68
2023/10/29 02:47:34;;;;;;;3.40;2.33;;;;;;;;;;5071685;28;20211;-68
2023/10/29 02:50:00;;;;;;;4.65;2.50;;;;;;;;;;5071478;28;20217;-69
2023/10/29 02:52:26;;;;;;;3.95;2.40;;;;;;;;;;5071562;28;20208;-69
2023/10/29 02:54:53;;;;;;;6.32;2.53;;;;;;;;;;5071432;28;20228;-70
2023/10/29 02:57:20;;;;;;;2.50;2.30;;;;;;;;;;5071603;28;20208;-70
2023/10/29 02:59:46;;;;;;;3.55;2.47;;;;;;;;;;5071553;28;20200;-70
2023/10/29 03:02:13;;;;;;;2.53;2.42;;;;;;;;;;5071478;28;20585;-69
2023/10/29 03:04:39;;;;;;;3.60;2.33;;;;;;;;;;5071221;28;20231;-69
2023/10/29 03:07:05;;;;;;;5.10;2.60;;;;;;;;;;5072824;28;20200;-69
2023/10/29 03:09:31;;;;;;;3.28;1.90;;;;;;;;;;5075252;28;20203;-69
2023/10/29 03:11:58;;;;;;;2.33;2.22;;;;;;;;;;5075328;28;20205;-69
2023/10/29 03:14:25;;;;;;;3.58;2.42;;;;;;;;;;5074705;28;20572;-69
2023/10/29 03:16:52;;;;;;;2.45;2.22;;;;;;;;;;5075042;28;20219;-69
2023/10/29 03:19:18;;;;;;;3.42;2.30;;;;;;;;;;5074847;28;20668;-69
2023/10/29 03:21:44;;;;;;;2.40;2.08;;;;;;;;;;5075148;28;20216;-69
2023/10/29 03:24:10;;;;;;;3.65;2.58;;;;;;;;;;5074961;28;20310;-69
2023/10/29 03:26:37;;;;;;;4.55;2.17;;;;;;;;;;5074950;28;20204;-69
2023/10/29 03:29:03;;;;;;;2.47;2.25;;;;;;;;;;5075040;28;20196;-69
2023/10/29 03:31:31;;;;;;;2.25;2.15;;;;;;;;;;5074760;28;20252;-69
2023/10/29 03:33:58;;;;;;;3.53;2.08;;;;;;;;;;5074727;28;20208;-69
2023/10/29 03:36:24;;;;;;;3.35;2.30;;;;;;;;;;5074888;28;20196;-69
2023/10/29 03:38:50;;;;;;;2.88;2.13;;;;;;;;;;5074958;28;20208;-69
2023/10/29 03:41:21;;;;;;;2.20;2.00;;;;;;;;;;5074866;28;20204;-69
2023/10/29 03:43:47;;;;;;;2.65;1.88;;;;;;;;;;5074699;28;20220;-69
2023/10/29 03:46:14;;;;;;;3.83;1.88;;;;;;;;;;5074866;28;20204;-69
2023/10/29 03:48:44;;;;;;;6.30;1.90;;;;;;;;;;5076309;28;20212;-69
2023/10/29 03:51:11;;;;;;;2.35;2.05;;;;;;;;;;5077390;28;20216;-69
2023/10/29 03:53:37;;;;;;;4.13;2.20;;;;;;;;;;5077201;28;20211;-69
2023/10/29 03:56:04;;;;;;;2.35;1.90;;;;;;;;;;5074926;28;20231;-69
2023/10/29 03:58:30;;;;;;;5.20;2.08;;;;;;;;;;5074256;28;20209;-70
2023/10/29 04:00:57;;;;;;;2.83;2.03;;;;;;;;;;5074117;28;20208;-69
2023/10/29 04:03:23;;;;;;;7.05;2.67;;;;;;;;;;5074409;28;20204;-69
2023/10/29 04:05:51;;;;;;;3.90;1.58;;;;;;;;;;5074043;28;20227;-69
2023/10/29 04:08:17;;;;;;;1.70;1.65;;;;;;;;;;5074293;28;20204;-69
2023/10/29 04:10:44;;;;;;;4.50;1.95;;;;;;;;;;5074020;28;20684;-69
2023/10/29 04:13:10;;;;;;;3.20;1.98;;;;;;;;;;5073916;28;20246;-69
2023/10/29 04:15:36;;;;;;;2.03;1.60;;;;;;;;;;5073603;28;20735;-69
2023/10/29 04:18:03;;;;;;;1.73;1.60;;;;;;;;;;5073795;28;20567;-69
2023/10/29 04:20:29;;;;;;;7.93;1.75;;;;;;;;;;5074066;28;20211;-69
2023/10/29 04:22:56;;;;;;;1.45;1.45;;;;;;;;;;5073998;28;20204;-69
2023/10/29 04:25:23;;;;;;;5.55;2.33;;;;;;;;;;5073439;28;20225;-69
2023/10/29 04:27:49;;;;;;;7.45;1.60;;;;;;;;;;5073664;28;20240;-69
2023/10/29 04:30:16;;;;;;;3.35;1.88;;;;;;;;;;5073548;28;20761;-69
2023/10/29 04:32:42;;;;;;;3.58;1.67;;;;;;;;;;5074058;28;20291;-69
2023/10/29 04:35:09;;;;;;;1.60;1.50;;;;;;;;;;5073294;28;20607;-69
2023/10/29 04:37:35;;;;;;;1.50;1.38;;;;;;;;;;5073729;28;20204;-69
2023/10/29 04:40:04;;;;;;;3.15;1.80;;;;;;;;;;5073683;28;20279;-69
2023/10/29 04:42:30;;;;;;;7.43;1.95;;;;;;;;;;5073317;28;20299;-70
2023/10/29 04:44:56;;;;;;;1.60;1.50;;;;;;;;;;5072998;28;20228;-69
2023/10/29 04:47:22;;;;;;;3.58;1.70;;;;;;;;;;5073251;28;20200;-69
2023/10/29 04:49:49;;;;;;;2.20;1.80;;;;;;;;;;5072575;28;20196;-69
2023/10/29 04:52:15;;;;;;;2.97;1.90;;;;;;;;;;5072751;28;20207;-69
2023/10/29 04:54:42;;;;;;;5.15;1.70;;;;;;;;;;5072344;28;20227;-69
2023/10/29 04:57:10;;;;;;;5.72;2.17;;;;;;;;;;5072339;28;20239;-69
2023/10/29 04:59:36;;;;;;;2.78;1.80;;;;;;;;;;5072242;28;20204;-69
2023/10/29 05:02:03;;;;;;;2.08;1.40;;;;;;;;;;5072539;28;20200;-69
2023/10/29 05:04:30;;;;;;;2.40;1.65;;;;;;;;;;5072111;28;20224;-69
2023/10/29 05:06:56;;;;;;;3.15;1.83;;;;;;;;;;5072004;28;20232;-70
2023/10/29 05:09:22;;;;;;;3.75;2.03;;;;;;;;;;5071694;28;20200;-69
2023/10/29 05:11:49;;;;;;;1.70;1.60;;;;;;;;;;5071306;28;20220;-69
2023/10/29 05:14:16;;;;;;;1.85;1.75;;;;;;;;;;5071936;28;20270;-69
2023/10/29 05:16:42;;;;;;;2.85;1.77;;;;;;;;;;5072300;28;20204;-69
2023/10/29 05:19:09;;;;;;;1.70;1.60;;;;;;;;;;5072350;28;20208;-69
2023/10/29 05:21:35;;;;;;;2.03;1.90;;;;;;;;;;5072095;28;20208;-69
2023/10/29 05:24:02;;;;;;;2.13;1.92;;;;;;;;;;5071900;28;20203;-69
2023/10/29 05:26:29;;;;;;;3.40;2.25;;;;;;;;;;5071824;28;20558;-69
2023/10/29 05:28:55;;;;;;;2.20;2.00;;;;;;;;;;5072433;28;20625;-69
2023/10/29 05:31:22;;;;;;;4.05;2.38;;;;;;;;;;5070686;28;20227;-69
2023/10/29 05:33:49;;;;;;;6.45;3.45;;;;;;;;;;5070949;28;20207;-69
2023/10/29 05:36:16;;;;;;;4.53;3.70;;;;;;;;;;5070790;28;20207;-69
2023/10/29 05:38:42;;;;;;;12.57;7.00;;;;;;;;;;5070989;28;20789;-69
2023/10/29 05:41:09;;;;;;;27.67;13.65;;;;;;;;;;5070599;28;20569;-69
2023/10/29 05:43:36;;;;;;;28.42;14.10;;;;;;;;;;5074710;28;20207;-62
2023/10/29 05:46:03;;;;;;;32.10;16.55;;;;;;;;;;5079716;28;20220;-62
2023/10/29 05:48:30;;;;;;;33.03;15.73;;;;;;;;;;5080579;28;20204;-62
2023/10/29 05:50:57;;;;;;;33.67;17.02;;;;;;;;;;5080558;28;20220;-62
2023/10/29 05:53:23;;;;;;;38.25;15.95;;;;;;;;;;5080792;28;20211;-62
2023/10/29 05:55:50;;;;;;;29.20;15.18;;;;;;;;;;5081184;28;20224;-62
2023/10/29 05:58:17;;;;;;;31.77;16.17;;;;;;;;;;5081776;28;20239;-62
2023/10/29 06:00:43;;;;;;;23.33;13.23;;;;;;;;;;5081103;28;20204;-62
2023/10/29 06:03:09;;;;;;;32.03;16.67;;;;;;;;;;5080590;28;20200;-62
2023/10/29 06:05:37;;;;;;;19.42;11.05;;;;;;;;;;5080206;28;20747;-61
2023/10/29 06:08:05;;;;;;;11.93;7.40;;;;;;;;;;5081142;28;20201;-61
2023/10/29 06:10:31;;;;;;;15.27;8.20;;;;;;;;;;5080527;28;20224;-61
2023/10/29 06:12:58;;;;;;;9.10;4.55;;;;;;;;;;5080822;28;20196;-62
2023/10/29 06:15:25;;;;;;;8.27;3.25;;;;;;;;;;5081609;28;20314;-61
2023/10/29 06:17:51;;;;;;;3.92;3.40;;;;;;;;;;5081524;28;20228;-61
2023/10/29 06:20:20;;;;;;;5.47;2.92;;;;;;;;;;5080956;28;20216;-61
2023/10/29 06:22:48;;;;;;;11.50;3.47;;;;;;;;;;5080802;28;20611;-62
2023/10/29 06:25:14;;;;;;;3.83;2.63;;;;;;;;;;5080450;28;20319;-62
2023/10/29 06:27:41;;;;;;;3.72;2.13;;;;;;;;;;5080475;28;20575;-62
2023/10/29 06:30:08;;;;;;;4.53;2.30;;;;;;;;;;5079272;28;20203;-61
2023/10/29 06:32:34;;;;;;;2.88;2.30;;;;;;;;;;5078251;28;20623;-62
2023/10/29 06:35:00;;;;;;;3.10;2.90;;;;;;;;;;5077562;28;20224;-62
2023/10/29 06:37:27;;;;;;;7.60;5.30;;;;;;;;;;5078725;28;20200;-62
2023/10/29 06:39:54;;;;;;;7.40;5.00;;;;;;;;;;5078154;28;20200;-62
2023/10/29 06:42:20;;;;;;;5.25;4.22;;;;;;;;;;5081510;28;20677;-61
2023/10/29 06:44:47;;;;;;;6.80;4.50;;;;;;;;;;5082411;28;20228;-61
2023/10/29 06:47:14;;;;;;;9.05;6.55;;;;;;;;;;5082227;28;20211;-61
2023/10/29 06:49:40;;;;;;;6.18;5.55;;;;;;;;;;5083216;28;20208;-62
2023/10/29 06:52:07;;;;;;;11.57;5.72;;;;;;;;;;5082602;28;20235;-60
2023/10/29 06:54:33;;;;;;;7.07;5.55;;;;;;;;;;5082384;28;20228;-61
2023/10/29 06:57:01;;;;;;;9.32;5.75;;;;;;;;;;5082013;28;20207;-63
2023/10/29 06:59:28;;;;;;;5.30;4.80;;;;;;;;;;5082286;28;20286;-62
2023/10/29 07:01:56;;;;;;;5.50;5.05;;;;;;;;;;5082371;28;20197;-61
2023/10/29 07:04:22;;;;;;;3.67;3.35;;;;;;;;;;5081916;28;20266;-61
2023/10/29 07:06:49;;;;;;;8.55;3.35;;;;;;;;;;5082343;28;20197;-61
2023/10/29 07:09:16;;;;;;;5.03;3.95;;;;;;;;;;5081654;28;20204;-61
2023/10/29 07:11:42;;;;;;;3.40;3.10;;;;;;;;;;5082194;28;20223;-61
2023/10/29 07:14:10;;;;;;;4.05;3.45;;;;;;;;;;5081214;28;20216;-61
2023/10/29 07:16:37;;;;;;;10.13;4.63;;;;;;;;;;5082318;28;20200;-61
2023/10/29 07:19:04;;;;;;;4.88;4.38;;;;;;;;;;5082353;28;20707;-61
2023/10/29 07:21:30;;;;;;;41.03;22.88;;;;;;;;;;5082086;28;20240;-61
2023/10/29 07:23:57;;;;;;;15.95;10.75;;;;;;;;;;5082477;28;20201;-61
2023/10/29 07:26:23;;;;;;;9.63;5.80;;;;;;;;;;5081465;28;20208;-61
2023/10/29 07:28:49;;;;;;;4.70;2.78;;;;;;;;;;5080989;28;20211;-61
2023/10/29 07:31:17;;;;;;;3.83;2.65;;;;;;;;;;5080978;28;20692;-60
2023/10/29 07:33:43;;;;;;;3.45;2.85;;;;;;;;;;5081249;28;20200;-60
2023/10/29 07:36:09;;;;;;;3.08;2.88;;;;;;;;;;5082146;28;20196;-61
2023/10/29 07:38:36;;;;;;;3.00;2.63;;;;;;;;;;5081544;28;20204;-61
2023/10/29 07:41:02;;;;;;;5.45;3.17;;;;;;;;;;5080821;28;20204;-61
2023/10/29 07:43:28;;;;;;;3.03;2.78;;;;;;;;;;5080077;28;20208;-61
2023/10/29 07:46:01;;;;;;;5.00;4.50;;;;;;;;;;5080854;28;20229;-63
2023/10/29 07:48:29;;;;;;;10.30;6.20;;;;;;;;;;5080542;28;20211;-62
2023/10/29 07:50:55;;;;;;;9.77;5.57;;;;;;;;;;5080919;28;20408;-62
2023/10/29 07:53:22;;;;;;;8.55;4.85;;;;;;;;;;5079588;28;20200;-62
2023/10/29 07:55:48;;;;;;;7.28;3.83;;;;;;;;;;5079838;28;20711;-62
2023/10/29 07:58:14;;;;;;;4.28;3.33;;;;;;;;;;5080594;28;20211;-62
2023/10/29 08:00:41;;;;;;;5.55;2.78;;;;;;;;;;5080648;28;20594;-63
2023/10/29 08:03:07;;;;;;;3.85;2.67;;;;;;;;;;5080257;28;20197;-62
2023/10/29 08:05:35;;;;;;;5.72;2.92;;;;;;;;;;5080919;28;20224;-62
2023/10/29 08:08:01;;;;;;;4.82;3.65;;;;;;;;;;5080046;28;20204;-61
2023/10/29 08:10:27;;;;;;;5.53;4.05;;;;;;;;;;5080762;28;20227;-61
2023/10/29 08:12:53;;;;;;;4.45;3.47;;;;;;;;;;5080799;28;20233;-61
2023/10/29 08:15:20;;;;;;;4.05;3.10;;;;;;;;;;5080136;28;20228;-61
2023/10/29 08:17:46;;;;;;;3.65;3.42;;;;;;;;;;5081262;28;20208;-61
2023/10/29 08:20:12;;;;;;;3.45;3.15;;;;;;;;;;5080794;28;20677;-61
2023/10/29 08:22:40;;;;;;;4.53;3.42;;;;;;;;;;5080775;28;20203;-62
2023/10/29 08:25:07;;;;;;;7.40;3.28;;;;;;;;;;5081027;28;20227;-62
2023/10/29 08:27:33;;;;;;;4.90;3.42;;;;;;;;;;5081038;28;20622;-62
2023/10/29 08:30:00;;;;;;;3.50;2.92;;;;;;;;;;5079745;28;20204;-62
2023/10/29 08:32:27;;;;;;;3.40;3.10;;;;;;;;;;5079195;28;20228;-62
2023/10/29 08:34:53;;;;;;;3.42;3.13;;;;;;;;;;5078746;28;20278;-62
2023/10/29 08:37:20;;;;;;;6.68;3.22;;;;;;;;;;5079291;28;20288;-62
2023/10/29 08:39:48;;;;;;;5.03;3.03;;;;;;;;;;5079546;28;20204;-62
2023/10/29 08:42:14;;;;;;;7.65;2.72;;;;;;;;;;5079973;28;20201;-63
2023/10/29 08:44:41;;;;;;;3.08;2.85;;;;;;;;;;5077965;28;20231;-62
2023/10/29 08:47:07;;;;;;;11.82;6.95;;;;;;;;;;5080310;28;20200;-62
2023/10/29 08:49:33;;;;;;;18.92;8.05;;;;;;;;;;5081012;28;20208;-62
2023/10/29 08:51:59;;;;;;;32.42;14.93;;;;;;;;;;5081091;28;20231;-62
2023/10/29 08:54:26;;;;;;;27.52;12.98;;;;;;;;;;5079754;28;20708;-62
2023/10/29 08:56:53;;;;;;;10.75;5.72;;;;;;;;;;5078916;28;20203;-62
2023/10/29 08:59:19;;;;;;;7.63;4.00;;;;;;;;;;5077590;28;20200;-62
2023/10/29 09:01:46;;;;;;;8.82;4.22;;;;;;;;;;5076954;28;20211;-62
2023/10/29 09:04:12;;;;;;;4.95;3.47;;;;;;;;;;5074563;28;20235;-61
2023/10/29 09:06:38;;;;;;;8.75;3.72;;;;;;;;;;5075151;28;20669;-61
2023/10/29 09:09:05;;;;;;;7.05;3.30;;;;;;;;;;5075667;28;20233;-61
2023/10/29 09:11:31;;;;;;;5.93;3.67;;;;;;;;;;5075216;28;20224;-61
2023/10/29 09:14:01;;;;;;;22.35;8.85;;;;;;;;;;5076235;28;20611;-61
2023/10/29 09:16:27;;;;;;;32.00;15.40;;;;;;;;;;5078883;28;20200;-61
2023/10/29 09:18:53;;;;;;;31.83;17.60;;;;;;;;;;5079027;28;20196;-61
2023/10/29 09:21:19;;;;;;;14.85;9.90;;;;;;;;;;5079006;28;20287;-61
2023/10/29 09:23:46;;;;;;;8.57;5.43;;;;;;;;;;5078884;28;20208;-61
2023/10/29 09:26:12;;;;;;;7.05;3.90;;;;;;;;;;5079647;28;20212;-61
2023/10/29 09:28:38;;;;;;;4.03;3.50;;;;;;;;;;5079217;28;20200;-61
2023/10/29 09:31:06;;;;;;;5.78;3.95;;;;;;;;;;5078766;28;20291;-61
2023/10/29 09:33:32;;;;;;;5.07;3.60;;;;;;;;;;5078905;28;20217;-61
2023/10/29 09:36:00;;;;;;;6.03;3.40;;;;;;;;;;5078930;28;20220;-61
2023/10/29 09:38:26;;;;;;;6.15;3.08;;;;;;;;;;5079282;28;20204;-61
2023/10/29 09:40:52;;;;;;;5.05;3.53;;;;;;;;;;5078609;28;20683;-61
2023/10/29 09:43:23;;;;;;;7.78;3.47;;;;;;;;;;5078429;28;20287;-61
2023/10/29 09:45:49;;;;;;;7.30;3.15;;;;;;;;;;5078187;28;20221;-61
2023/10/29 09:48:17;;;;;;;6.10;3.17;;;;;;;;;;5077414;28;20247;-61
2023/10/29 09:50:44;;;;;;;5.00;3.00;;;;;;;;;;5077816;28;20208;-61
2023/10/29 09:53:11;;;;;;;4.07;2.75;;;;;;;;;;5078114;28;20217;-61
2023/10/29 09:55:38;;;;;;;3.15;2.78;;;;;;;;;;5079453;28;20216;-61
2023/10/29 09:58:05;;;;;;;4.30;2.97;;;;;;;;;;5080235;28;20203;-61
2023/10/29 10:00:32;;;;;;;2.58;2.47;;;;;;;;;;5079380;28;20200;-61
2023/10/29 10:02:59;;;;;;;2.53;2.42;;;;;;;;;;5078697;28;20651;-60
2023/10/29 10:05:28;;;;;;;2.50;2.40;;;;;;;;;;5078263;28;20419;-61
2023/10/29 10:07:56;;;;;;;2.47;2.28;;;;;;;;;;5079978;28;20286;-61
2023/10/29 10:10:22;;;;;;;7.88;3.15;;;;;;;;;;5079458;28;20254;-61
2023/10/29 10:12:49;;;;;;;2.95;2.70;;;;;;;;;;5078797;28;20226;-61
2023/10/29 10:15:16;;;;;;;4.15;2.88;;;;;;;;;;5078723;28;20220;-61
2023/10/29 10:17:45;;;;;;;3.65;3.22;;;;;;;;;;5078184;28;20687;-61
2023/10/29 10:20:12;;;;;;;4.35;3.88;;;;;;;;;;5079387;28;20204;-61
2023/10/29 10:22:43;;;;;;;6.60;4.22;;;;;;;;;;5079682;28;20201;-61
2023/10/29 10:25:16;;;;;;;8.38;4.72;;;;;;;;;;5078429;28;20221;-61
2023/10/29 10:27:48;;;;;;;4.35;3.92;;;;;;;;;;5079235;28;20200;-61
2023/10/29 10:30:24;;;;;;;4.65;3.28;;;;;;;;;;5078754;28;20189;-62
2023/10/29 10:32:50;;;;;;;3.70;3.33;;;;;;;;;;5077807;28;20611;-60
2023/10/29 10:35:16;;;;;;;6.93;3.55;;;;;;;;;;5077658;28;20312;-60
2023/10/29 10:37:51;;;;;;;3.20;3.00;;;;;;;;;;5078170;28;20582;-60
2023/10/29 10:40:21;;;;;;;4.07;3.65;;;;;;;;;;5077633;28;20696;-61
2023/10/29 10:42:53;;;;;;;4.93;3.00;;;;;;;;;;5077763;28;20196;-61
2023/10/29 10:45:26;;;;;;;3.30;2.80;;;;;;;;;;5077428;28;20244;-61
2023/10/29 10:47:52;;;;;;;3.38;2.47;;;;;;;;;;5077037;28;20257;-61
2023/10/29 10:50:20;;;;;;;2.75;2.55;;;;;;;;;;5077705;28;20200;-62
2023/10/29 10:52:48;;;;;;;4.60;2.20;;;;;;;;;;5078396;28;20231;-61
2023/10/29 10:55:14;;;;;;;2.38;2.08;;;;;;;;;;5077830;28;20220;-62
2023/10/29 10:57:41;;;;;;;2.22;2.00;;;;;;;;;;5076464;28;20201;-61
2023/10/29 11:00:10;;;;;;;2.35;2.20;;;;;;;;;;5077445;28;20226;-62
2023/10/29 11:02:39;;;;;;;1.73;1.63;;;;;;;;;;5076143;28;20715;-62
2023/10/29 11:05:06;;;;;;;2.90;2.13;;;;;;;;;;5075832;28;20220;-62
2023/10/29 11:07:32;;;;;;;2.22;1.67;;;;;;;;;;5075664;28;20227;-61
2023/10/29 11:09:59;;;;;;;1.90;1.80;;;;;;;;;;5076259;28;20207;-62
2023/10/29 11:12:27;;;;;;;1.65;1.55;;;;;;;;;;5077040;28;20260;-62
2023/10/29 11:15:11;;;;;;;3.72;1.75;;;;;;;;;;5076654;28;20707;-60
2023/10/29 11:17:50;;;;;;;1.70;1.60;;;;;;;;;;5076930;28;20204;-61
2023/10/29 11:20:31;;;;;;;5.25;1.77;;;;;;;;;;5076535;28;20231;-61
2023/10/29 11:23:06;;;;;;;2.03;1.92;;;;;;;;;;5076133;28;20573;-61
2023/10/29 11:25:34;;;;;;;3.95;2.38;;;;;;;;;;5076838;28;20220;-62
2023/10/29 11:28:01;;;;;;;3.90;2.63;;;;;;;;;;5077518;28;20200;-61
2023/10/29 11:30:28;;;;;;;2.38;2.17;;;;;;;;;;5080710;28;20304;-61
2023/10/29 11:33:13;;;;;;;1.42;1.42;;;;;;;;;;5079663;28;20589;-61
2023/10/29 11:35:41;;;;;;;2.05;1.70;;;;;;;;;;5079432;28;20310;-61
2023/10/29 11:38:22;;;;;;;2.33;1.30;;;;;;;;;;5079653;28;20200;-63
2023/10/29 11:40:50;;;;;;;2.67;1.23;;;;;;;;;;5078335;28;20201;-61
2023/10/29 11:43:16;;;;;;;1.63;1.52;;;;;;;;;;5080138;28;20661;-61
2023/10/29 11:45:52;;;;;;;1.38;1.27;;;;;;;;;;5079159;28;20334;-61
2023/10/29 11:48:18;;;;;;;3.38;1.30;;;;;;;;;;5079698;28;20207;-61
2023/10/29 11:50:59;;;;;;;1.13;1.10;;;;;;;;;;5079466;28;20572;-62
2023/10/29 11:53:26;;;;;;;2.15;1.50;;;;;;;;;;5078489;28;20225;-62
2023/10/29 11:55:57;;;;;;;1.98;1.75;;;;;;;;;;5079615;28;20232;-61
2023/10/29 11:58:24;;;;;;;2.55;1.60;;;;;;;;;;5080016;28;20675;-61
2023/10/29 12:00:50;;;;;;;1.20;1.20;;;;;;;;;;5081343;28;20207;-62
2023/10/29 12:03:18;;;;;;;1.70;1.60;;;;;;;;;;5080899;28;20208;-62
2023/10/29 12:05:47;;;;;;;2.75;1.52;;;;;;;;;;5079697;28;20224;-62
2023/10/29 12:08:13;;;;;;;1.40;1.30;;;;;;;;;;5080185;28;20204;-62
2023/10/29 12:10:45;;;;;;;2.28;2.08;;;;;;;;;;5080081;28;20254;-62
2023/10/29 12:13:12;;;;;;;1.83;1.73;;;;;;;;;;5079507;28;20629;-62
2023/10/29 12:15:39;;;;;;;1.48;1.42;;;;;;;;;;5079587;28;20247;-62
2023/10/29 12:18:05;;;;;;;1.75;1.63;;;;;;;;;;5079530;28;20239;-61
2023/10/29 12:20:32;;;;;;;1.48;1.48;;;;;;;;;;5079268;28;20215;-61
2023/10/29 12:23:00;;;;;;;4.75;1.77;;;;;;;;;;5080095;28;20197;-63
2023/10/29 12:25:27;;;;;;;3.08;1.58;;;;;;;;;;5079506;28;20224;-62
2023/10/29 12:27:53;;;;;;;2.50;1.73;;;;;;;;;;5080164;28;20196;-61
2023/10/29 12:30:37;;;;;;;1.92;1.70;;;;;;;;;;5079926;28;20211;-61
2023/10/29 12:33:19;;;;;;;1.60;1.50;;;;;;;;;;5079426;28;20592;-61
2023/10/29 12:35:47;;;;;;;2.38;1.42;;;;;;;;;;5079161;28;20565;-63
2023/10/29 12:38:14;;;;;;;1.85;1.40;;;;;;;;;;5080268;28;20200;-62
2023/10/29 12:40:55;;;;;;;1.55;1.40;;;;;;;;;;5079778;28;20209;-62
2023/10/29 12:43:33;;;;;;;2.05;1.60;;;;;;;;;;5079036;28;20204;-61
2023/10/29 12:46:01;;;;;;;3.30;1.27;;;;;;;;;;5078859;28;20228;-61
2023/10/29 12:48:28;;;;;;;1.73;1.60;;;;;;;;;;5079543;28;20204;-61
2023/10/29 12:50:55;;;;;;;2.17;1.98;;;;;;;;;;5079121;28;20206;-60
2023/10/29 12:53:22;;;;;;;1.50;1.50;;;;;;;;;;5079394;28;20220;-61
2023/10/29 12:55:49;;;;;;;5.72;1.90;;;;;;;;;;5079765;28;20227;-61
2023/10/29 12:58:15;;;;;;;1.30;1.20;;;;;;;;;;5081284;28;20226;-63
2023/10/29 13:00:42;;;;;;;1.73;1.40;;;;;;;;;;5079723;28;20558;-61
2023/10/29 13:03:09;;;;;;;1.38;1.38;;;;;;;;;;5080024;28;20391;-61
2023/10/29 13:05:36;;;;;;;1.35;1.25;;;;;;;;;;5079180;28;20252;-62
2023/10/29 13:08:04;;;;;;;1.38;1.27;;;;;;;;;;5079781;28;20714;-61
2023/10/29 13:10:32;;;;;;;3.92;1.08;;;;;;;;;;5079571;28;20204;-61
2023/10/29 13:12:59;;;;;;;1.27;1.27;;;;;;;;;;5079655;28;20251;-61
2023/10/29 13:15:25;;;;;;;1.10;1.10;;;;;;;;;;5079734;28;20226;-61
2023/10/29 13:17:51;;;;;;;2.80;1.38;;;;;;;;;;5079604;28;20583;-63
2023/10/29 13:20:20;;;;;;;1.00;1.00;;;;;;;;;;5079595;28;20219;-61
2023/10/29 13:22:46;;;;;;;1.45;1.15;;;;;;;;;;5078479;28;20239;-62
2023/10/29 13:25:13;;;;;;;3.38;1.25;;;;;;;;;;5079056;28;20320;-61
2023/10/29 13:27:40;;;;;;;2.38;0.80;;;;;;;;;;5079936;28;20591;-61
2023/10/29 13:30:07;;;;;;;0.90;0.90;;;;;;;;;;5079942;28;20207;-61
2023/10/29 13:32:33;;;;;;;0.98;0.95;;;;;;;;;;5080211;28;20211;-61
2023/10/29 13:35:00;;;;;;;1.30;0.80;;;;;;;;;;5079333;28;20704;-61
2023/10/29 13:37:28;;;;;;;3.15;0.98;;;;;;;;;;5079696;28;20208;-63
2023/10/29 13:39:55;;;;;;;1.55;1.10;;;;;;;;;;5079147;28;20206;-63
2023/10/29 13:42:22;;;;;;;1.33;0.93;;;;;;;;;;5079615;28;20649;-61
2023/10/29 13:44:49;;;;;;;1.00;0.98;;;;;;;;;;5079174;28;20307;-61
2023/10/29 13:47:15;;;;;;;1.77;1.38;;;;;;;;;;5078790;28;20648;-61
2023/10/29 13:49:41;;;;;;;3.70;1.88;;;;;;;;;;5078512;28;20200;-62
2023/10/29 13:52:08;;;;;;;2.35;1.70;;;;;;;;;;5077433;28;20668;-61
2023/10/29 13:54:35;;;;;;;2.97;1.80;;;;;;;;;;5078228;28;20255;-61
2023/10/29 13:57:02;;;;;;;1.90;1.80;;;;;;;;;;5079625;28;20447;-61
2023/10/29 13:59:28;;;;;;;1.88;1.70;;;;;;;;;;5078645;28;20196;-61
2023/10/29 14:01:54;;;;;;;2.42;1.83;;;;;;;;;;5079322;28;20196;-62
2023/10/29 14:04:20;;;;;;;2.20;2.03;;;;;;;;;;5079222;28;20221;-62
2023/10/29 14:06:48;;;;;;;3.05;1.90;;;;;;;;;;5078931;28;20200;-62
2023/10/29 14:09:14;;;;;;;2.30;1.70;;;;;;;;;;5078487;28;20232;-62
2023/10/29 14:11:42;;;;;;;2.00;1.90;;;;;;;;;;5077617;28;20227;-62
2023/10/29 14:14:08;;;;;;;3.13;2.10;;;;;;;;;;5078258;28;20231;-62
2023/10/29 14:16:35;;;;;;;4.85;2.67;;;;;;;;;;5078167;28;20196;-62
2023/10/29 14:19:01;;;;;;;5.15;2.80;;;;;;;;;;5080807;28;20568;-62
2023/10/29 14:21:27;;;;;;;2.97;2.60;;;;;;;;;;5079975;28;20212;-63
2023/10/29 14:23:54;;;;;;;3.03;2.70;;;;;;;;;;5080331;28;20203;-63
2023/10/29 14:26:20;;;;;;;2.35;2.22;;;;;;;;;;5079868;28;20556;-62
2023/10/29 14:28:48;;;;;;;7.50;2.28;;;;;;;;;;5078347;28;20209;-61
2023/10/29 14:31:14;;;;;;;3.90;2.28;;;;;;;;;;5078625;28;20652;-62
2023/10/29 14:33:40;;;;;;;1.63;1.52;;;;;;;;;;5078686;28;20232;-62
2023/10/29 14:36:07;;;;;;;1.70;1.60;;;;;;;;;;5078570;28;20220;-62
2023/10/29 14:38:33;;;;;;;1.98;1.63;;;;;;;;;;5078289;28;20210;-62
2023/10/29 14:41:00;;;;;;;2.05;1.02;;;;;;;;;;5078256;28;20207;-62